Date,TemperatureHighF,TemperatureAvgF,TemperatureLowF,DewpointHighF,DewpointAvgF,DewpointLowF,HumidityHigh,HumidityAvg,HumidityLow,PressureMaxIn,PressureMinIn,WindSpeedMaxMPH,WindSpeedAvgMPH,GustSpeedMaxMPH,PrecipitationSumIn
2013-7-1,83.2,75.0,71.9,79.3,73.7,70.9,99,96,83,30.06,29.90,13,1,13,0.06
2013-7-2,84.5,76.7,72.7,78.3,74.3,72.0,99,93,77,30.15,30.05,13,1,13,0.00
2013-7-3,88.4,78.1,71.5,79.1,74.0,70.5,97,88,70,30.19,30.11,21,2,21,0.00
2013-7-4,91.0,81.7,73.1,80.7,76.3,71.9,99,85,67,30.18,30.07,14,2,14,0.00
2013-7-5,93.3,83.2,74.6,80.6,76.2,72.6,94,80,61,30.14,30.01,12,2,12,0.00
2013-7-6,91.3,82.9,75.4,79.2,75.5,72.9,94,79,61,30.05,29.94,17,2,17,0.00
2013-7-7,92.8,80.1,71.5,82.5,75.1,70.0,98,86,63,29.99,29.87,17,1,17,0.01
2013-7-8,89.7,79.1,68.7,78.3,73.9,67.5,99,85,62,30.02,29.87,13,2,13,0.09
2013-7-9,81.6,71.5,66.8,73.5,69.4,66.2,99,93,67,30.07,29.99,6,0,6,0.00
2013-7-10,85.7,75.9,69.2,79.1,73.5,68.4,100,93,78,30.03,29.77,14,1,14,0.00
2013-7-11,81.5,75.9,71.7,77.1,74.1,70.0,99,94,85,29.88,29.75,11,0,11,0.61
2013-7-12,76.3,70.8,66.8,70.2,66.2,62.2,97,86,74,30.15,29.88,14,2,14,0.00
2013-7-13,78.5,71.5,66.3,75.6,70.1,64.4,99,95,90,30.27,30.15,8,1,8,0.04
2013-7-14,90.0,80.5,73.4,79.0,75.1,72.3,100,85,64,30.27,30.16,11,1,11,0.00
2013-7-15,91.8,82.1,74.0,79.3,75.3,71.7,98,81,60,30.17,30.06,10,1,10,0.00
2013-7-16,94.2,82.9,73.5,77.6,72.9,68.3,95,73,52,30.12,30.06,14,1,14,0.00
2013-7-17,93.7,82.1,72.2,79.7,74.6,70.0,98,80,52,30.14,29.98,12,1,12,0.00
2013-7-18,96.5,84.4,75.4,81.3,75.8,71.6,91,77,52,29.99,29.90,11,2,11,0.00
2013-7-19,96.1,85.4,76.2,82.2,78.2,74.3,96,80,59,29.91,29.70,21,2,21,0.00
2013-7-20,94.5,82.3,73.4,81.9,77.6,71.8,95,86,63,29.78,29.61,14,2,14,0.33
2013-7-21,87.5,77.4,69.5,75.4,70.3,66.0,96,80,60,29.95,29.77,8,1,8,0.00
2013-7-22,87.0,75.7,67.5,75.1,70.7,66.0,99,86,61,29.97,29.83,9,1,9,0.00
2013-7-23,87.2,75.4,71.7,81.0,73.7,70.2,100,95,76,29.83,29.50,15,1,15,1.95
2013-7-24,84.4,76.6,70.0,76.2,71.0,61.2,99,84,63,29.90,29.55,12,2,12,0.01
2013-7-25,69.9,61.8,59.2,61.3,57.6,52.6,98,87,73,30.05,29.90,17,2,17,0.34
2013-7-26,71.3,64.3,59.9,68.5,63.4,59.3,99,97,90,30.01,29.91,15,3,15,0.48
2013-7-27,84.6,72.3,61.8,72.2,67.0,60.9,99,85,59,30.04,29.97,11,1,11,0.00
2013-7-28,85.4,73.9,67.1,75.2,70.4,65.9,99,90,64,29.98,29.92,8,1,8,0.00
2013-7-29,85.3,74.9,67.4,77.5,71.5,65.8,99,90,75,30.00,29.93,15,1,15,0.00
2013-7-30,82.1,71.6,61.4,67.6,62.7,58.6,93,75,53,30.07,30.00,14,2,14,0.00
2013-7-31,82.7,71.7,60.3,68.9,63.3,58.0,94,76,52,30.11,30.01,6,1,10,0.00